Time;durP1;ratioP1;P1;durP2;ratioP2;P2;SDS_P1;SDS_P2;PMS_P1;PMS_P2;Temp;Humidity;BMP_temperature;BMP_pressure;BME280_temperature;BME280_humidity;BME280_pressure;Samples;Min_cycle;Max_cycle;Signal;HPM_P1;HPM_P2
2021/09/14 00:02:06;;;;;;;15.10;13.37;;;19.30;99.90;;;;;;6129780;23;20413;-89
2021/09/14 00:04:33;;;;;;;15.43;13.90;;;19.30;99.90;;;;;;6130739;23;20453;-88
2021/09/14 00:07:00;;;;;;;15.33;13.80;;;19.30;99.90;;;;;;6130632;23;20398;-88
2021/09/14 00:09:28;;;;;;;15.33;13.70;;;19.30;99.90;;;;;;6131864;23;20402;-88
2021/09/14 00:11:55;;;;;;;16.27;13.70;;;19.30;99.90;;;;;;6130287;23;20416;-88
2021/09/14 00:14:24;;;;;;;15.43;14.00;;;19.30;99.90;;;;;;6129333;23;20432;-88
2021/09/14 00:16:51;;;;;;;18.97;15.00;;;19.30;99.90;;;;;;6135153;23;20449;-88
2021/09/14 00:19:18;;;;;;;15.53;14.00;;;19.20;99.90;;;;;;6133009;23;20427;-88
2021/09/14 00:21:45;;;;;;;15.27;13.87;;;19.10;99.90;;;;;;6150533;23;20406;-87
2021/09/14 00:24:12;;;;;;;19.80;15.37;;;19.10;99.90;;;;;;6145386;23;20436;-88
2021/09/14 00:26:40;;;;;;;15.60;14.07;;;19.10;99.90;;;;;;6136342;23;20922;-87
2021/09/14 00:29:07;;;;;;;14.70;13.17;;;19.10;99.90;;;;;;6129807;23;20827;-87
2021/09/14 00:31:34;;;;;;;16.27;14.40;;;19.00;99.90;;;;;;6130562;23;20420;-87
2021/09/14 00:34:00;;;;;;;16.20;14.50;;;18.90;99.90;;;;;;6150804;23;20725;-86
2021/09/14 00:36:27;;;;;;;17.50;15.80;;;18.90;99.90;;;;;;6151174;23;20429;-87
2021/09/14 00:38:54;;;;;;;18.30;16.53;;;18.90;99.90;;;;;;6134925;23;20500;-88
2021/09/14 00:41:21;;;;;;;17.13;15.53;;;19.00;99.90;;;;;;6147182;23;20433;-87
2021/09/14 00:43:56;;;;;;;19.53;15.47;;;19.00;99.90;;;;;;6147704;23;20956;-88
2021/09/14 00:46:23;;;;;;;17.10;15.50;;;19.00;99.90;;;;;;6131081;23;20435;-88
2021/09/14 00:48:50;;;;;;;16.17;14.63;;;18.90;99.90;;;;;;6130831;23;20405;-88
2021/09/14 00:51:17;;;;;;;17.13;15.47;;;18.90;99.90;;;;;;6132636;23;20413;-87
2021/09/14 00:53:47;;;;;;;15.90;13.67;;;18.90;99.90;;;;;;6140561;23;20424;-87
2021/09/14 00:56:14;;;;;;;16.00;14.60;;;18.90;99.90;;;;;;6130856;23;20461;-89
2021/09/14 00:58:41;;;;;;;17.30;14.73;;;18.90;99.90;;;;;;6129885;23;20926;-89
2021/09/14 01:01:09;;;;;;;15.93;14.30;;;18.90;99.90;;;;;;6129070;23;20868;-87
2021/09/14 01:03:36;;;;;;;18.10;15.63;;;18.90;99.90;;;;;;6128100;23;20982;-88
2021/09/14 01:06:03;;;;;;;16.63;15.07;;;18.80;99.90;;;;;;6125936;23;20519;-86
2021/09/14 01:08:31;;;;;;;18.10;16.30;;;18.80;99.90;;;;;;6125539;23;20442;-86
2021/09/14 01:10:58;;;;;;;17.13;15.50;;;18.80;99.90;;;;;;6127294;23;20408;-87
2021/09/14 01:13:24;;;;;;;19.20;16.47;;;18.70;99.90;;;;;;6127181;23;20412;-86
2021/09/14 01:15:51;;;;;;;19.07;17.07;;;18.70;99.90;;;;;;6136453;23;20458;-85
2021/09/14 01:18:19;;;;;;;18.37;16.47;;;18.60;99.90;;;;;;6151578;23;20405;-86
2021/09/14 01:20:46;;;;;;;18.63;16.93;;;18.60;99.90;;;;;;6139490;23;20418;-87
2021/09/14 01:23:14;;;;;;;16.30;14.70;;;18.60;99.90;;;;;;6135542;23;20412;-87
2021/09/14 01:25:40;;;;;;;15.20;13.77;;;18.60;99.90;;;;;;6127550;23;20457;-87
2021/09/14 01:28:07;;;;;;;14.87;13.33;;;18.60;99.90;;;;;;6126514;23;20409;-87
2021/09/14 01:30:35;;;;;;;15.43;14.00;;;18.60;99.90;;;;;;6126416;23;20420;-87
2021/09/14 01:33:01;;;;;;;14.57;13.30;;;18.60;99.90;;;;;;6133989;23;20412;-86
2021/09/14 01:35:30;;;;;;;13.70;12.40;;;18.60;99.90;;;;;;6147672;23;20417;-86
2021/09/14 01:37:59;;;;;;;14.07;12.80;;;18.60;99.90;;;;;;6132668;23;20740;-86
2021/09/14 01:40:27;;;;;;;15.37;13.77;;;18.70;99.90;;;;;;6128274;23;20826;-87
2021/09/14 01:42:54;;;;;;;14.23;13.00;;;18.70;99.90;;;;;;6127975;23;20419;-87
2021/09/14 01:45:21;;;;;;;13.63;12.43;;;18.60;99.90;;;;;;6128204;23;20448;-86
2021/09/14 01:47:47;;;;;;;13.43;12.13;;;18.60;99.90;;;;;;6130275;23;20730;-87
2021/09/14 01:50:16;;;;;;;13.50;12.20;;;18.40;99.90;;;;;;6129083;23;20411;-87
2021/09/14 01:52:43;;;;;;;13.27;12.07;;;18.40;99.90;;;;;;6128847;23;20744;-87
2021/09/14 01:55:12;;;;;;;16.10;14.60;;;18.40;99.90;;;;;;6128789;23;20424;-86
2021/09/14 01:57:41;;;;;;;12.20;11.03;;;18.40;99.90;;;;;;6133238;23;20424;-85
2021/09/14 02:00:13;;;;;;;14.47;13.27;;;18.30;99.90;;;;;;6151811;23;20460;-86
2021/09/14 02:02:58;;;;;;;15.70;12.83;;;18.20;99.90;;;;;;6153924;23;20400;-85
2021/09/14 02:05:40;;;;;;;14.93;13.67;;;18.30;99.90;;;;;;6151577;23;20457;-86
2021/09/14 02:08:18;;;;;;;17.40;15.57;;;18.20;99.90;;;;;;6152269;23;20379;-85
2021/09/14 02:38:27;;;;;;;14.20;12.90;;;17.90;99.90;;;;;;6130774;23;20464;-86
2021/09/14 02:44:03;;;;;;;14.67;13.17;;;17.80;99.90;;;;;;6094674;23;20399;-86
2021/09/14 03:00:26;;;;;;;14.00;12.60;;;17.70;99.90;;;;;;6055321;23;20394;-86
2021/09/14 03:02:54;;;;;;;15.70;14.20;;;17.70;99.90;;;;;;6100494;23;20404;-87
2021/09/14 03:05:21;;;;;;;14.40;11.87;;;17.70;99.90;;;;;;6128722;23;20955;-86
2021/09/14 03:07:48;;;;;;;17.63;14.20;;;17.70;99.90;;;;;;6127498;23;20477;-87
2021/09/14 03:10:14;;;;;;;15.00;13.70;;;17.70;99.90;;;;;;6129192;23;20404;-87
2021/09/14 03:12:41;;;;;;;16.77;13.30;;;17.60;99.90;;;;;;6129951;23;20404;-87
2021/09/14 03:15:09;;;;;;;16.43;14.83;;;17.70;99.90;;;;;;6137996;23;20420;-85
2021/09/14 03:17:35;;;;;;;16.00;14.30;;;17.70;99.90;;;;;;6138430;23;20411;-87
2021/09/14 03:20:04;;;;;;;22.07;16.17;;;17.80;99.90;;;;;;6134354;23;20419;-87
2021/09/14 03:22:31;;;;;;;17.07;14.20;;;17.70;99.90;;;;;;6132471;23;20412;-86
2021/09/14 03:24:58;;;;;;;19.87;16.73;;;17.70;99.90;;;;;;6132288;23;20428;-88
2021/09/14 03:27:24;;;;;;;19.50;17.50;;;17.70;99.90;;;;;;6134927;23;20408;-86
2021/09/14 03:29:51;;;;;;;21.83;14.23;;;17.70;99.90;;;;;;6138893;23;20442;-85
2021/09/14 03:32:18;;;;;;;17.40;15.60;;;17.70;99.90;;;;;;6138186;23;20411;-86
2021/09/14 03:34:45;;;;;;;21.33;16.20;;;17.80;99.90;;;;;;6136806;23;20429;-87
2021/09/14 03:37:13;;;;;;;17.97;15.17;;;17.80;99.90;;;;;;6134290;23;20412;-87
2021/09/14 03:39:40;;;;;;;18.37;16.47;;;17.80;99.90;;;;;;6139394;23;20409;-87
2021/09/14 03:42:07;;;;;;;17.20;15.30;;;17.80;99.90;;;;;;6138793;23;20463;-88
2021/09/14 03:44:33;;;;;;;20.93;15.03;;;17.80;99.90;;;;;;6139150;23;20427;-87
2021/09/14 03:47:00;;;;;;;20.33;15.67;;;17.70;99.90;;;;;;6134430;23;20498;-88
2021/09/14 03:49:27;;;;;;;22.10;16.93;;;17.70;99.90;;;;;;6131706;23;20419;-88
2021/09/14 03:51:53;;;;;;;18.80;15.57;;;17.70;99.90;;;;;;6130725;23;20419;-88
2021/09/14 03:54:21;;;;;;;17.77;14.50;;;17.60;99.90;;;;;;6136473;23;20413;-88
2021/09/14 03:56:48;;;;;;;20.23;15.97;;;17.50;99.90;;;;;;6134760;23;20416;-88
2021/09/14 03:59:17;;;;;;;19.47;17.20;;;17.50;99.90;;;;;;6135487;23;20473;-88
2021/09/14 04:01:49;;;;;;;18.97;16.70;;;17.50;99.90;;;;;;6134316;23;20433;-87
2021/09/14 04:04:19;;;;;;;34.33;28.93;;;17.50;99.90;;;;;;6137200;23;20541;-87
2021/09/14 04:07:22;;;;;;;18.13;15.17;;;17.50;99.90;;;;;;6137386;23;20471;-85
2021/09/14 04:09:50;;;;;;;19.20;15.47;;;17.50;99.90;;;;;;6148730;23;20722;-87
2021/09/14 04:12:17;;;;;;;18.20;16.27;;;17.50;99.90;;;;;;6147811;23;20507;-85
2021/09/14 04:14:43;;;;;;;17.30;14.60;;;17.50;99.90;;;;;;6144408;23;20502;-87
2021/09/14 04:17:10;;;;;;;17.47;15.40;;;17.40;99.90;;;;;;6142522;23;20413;-87
2021/09/14 04:19:37;;;;;;;18.53;14.77;;;17.40;99.90;;;;;;6137595;23;20404;-88
2021/09/14 04:22:04;;;;;;;16.80;15.07;;;17.40;99.90;;;;;;6134643;23;20425;-79
2021/09/14 04:24:31;;;;;;;16.07;14.47;;;17.40;99.90;;;;;;6139973;23;20436;-82
2021/09/14 04:26:59;;;;;;;17.33;15.43;;;17.30;99.90;;;;;;6142916;23;20514;-81
2021/09/14 04:29:26;;;;;;;19.07;16.80;;;17.40;99.90;;;;;;6143613;23;20416;-79
2021/09/14 04:31:53;;;;;;;21.43;17.70;;;17.40;99.90;;;;;;6150915;23;20473;-78
2021/09/14 04:34:19;;;;;;;20.27;18.10;;;17.30;99.90;;;;;;6148884;23;20431;-81
2021/09/14 04:36:46;;;;;;;20.00;16.90;;;17.20;99.90;;;;;;6144421;23;20408;-80
2021/09/14 04:39:13;;;;;;;17.07;15.30;;;17.30;99.90;;;;;;6148990;23;20862;-82
2021/09/14 04:41:40;;;;;;;19.80;17.83;;;17.20;99.90;;;;;;6144660;23;20411;-81
2021/09/14 04:44:08;;;;;;;17.57;15.87;;;17.20;99.90;;;;;;6143454;23;21009;-80
2021/09/14 04:46:34;;;;;;;16.43;14.90;;;17.30;99.90;;;;;;6143051;23;20445;-81
2021/09/14 04:49:01;;;;;;;22.67;15.90;;;17.30;99.90;;;;;;6141793;23;20408;-81
2021/09/14 04:51:28;;;;;;;19.47;15.70;;;17.30;99.90;;;;;;6144817;23;20403;-80
2021/09/14 04:53:54;;;;;;;21.53;15.70;;;17.30;99.90;;;;;;6143035;23;20425;-80
2021/09/14 04:56:21;;;;;;;17.10;15.10;;;17.30;99.90;;;;;;6142499;23;20430;-81
2021/09/14 04:58:49;;;;;;;16.70;13.10;;;17.20;99.90;;;;;;6144190;23;20410;-81
2021/09/14 05:01:18;;;;;;;16.33;13.73;;;17.20;99.90;;;;;;6142697;23;20475;-80
2021/09/14 05:03:45;;;;;;;16.97;15.13;;;17.10;99.90;;;;;;6141946;23;20421;-80
2021/09/14 05:06:12;;;;;;;17.50;14.90;;;17.10;99.90;;;;;;6144552;23;20447;-80
2021/09/14 05:08:39;;;;;;;22.20;17.73;;;17.10;99.90;;;;;;6144462;23;20422;-84
2021/09/14 05:11:06;;;;;;;21.93;17.80;;;17.20;99.90;;;;;;6146023;23;20402;-80
2021/09/14 05:13:34;;;;;;;24.03;17.33;;;17.10;99.90;;;;;;6139704;23;20415;-79
2021/09/14 05:16:01;;;;;;;27.47;18.50;;;17.10;99.90;;;;;;6139369;23;20424;-80
2021/09/14 05:18:29;;;;;;;20.20;18.00;;;17.20;99.90;;;;;;6139545;23;20403;-80
2021/09/14 05:20:57;;;;;;;23.30;19.00;;;17.20;99.90;;;;;;6143023;23;20415;-80
2021/09/14 05:23:30;;;;;;;21.40;17.80;;;17.10;99.90;;;;;;6141993;23;20438;-79
2021/09/14 05:25:57;;;;;;;17.03;14.80;;;17.10;99.90;;;;;;6142602;23;20478;-79
2021/09/14 05:28:24;;;;;;;21.87;17.80;;;17.20;99.90;;;;;;6145928;23;20474;-80
2021/09/14 05:30:51;;;;;;;27.20;16.47;;;17.10;99.90;;;;;;6146003;23;20789;-80
2021/09/14 05:33:18;;;;;;;20.83;16.13;;;17.10;99.90;;;;;;6147190;23;20392;-79
2021/09/14 05:35:48;;;;;;;24.57;17.30;;;17.10;99.90;;;;;;6144738;23;20420;-80
2021/09/14 05:38:17;;;;;;;19.83;16.90;;;17.30;99.90;;;;;;6140541;23;20424;-79
2021/09/14 05:40:44;;;;;;;21.07;16.67;;;17.30;99.90;;;;;;6143751;23;20451;-82
2021/09/14 05:43:11;;;;;;;21.63;17.27;;;17.30;99.90;;;;;;6143437;23;20396;-82
2021/09/14 05:45:38;;;;;;;16.83;14.77;;;17.50;99.90;;;;;;6147420;23;20424;-80
2021/09/14 05:48:05;;;;;;;15.23;13.47;;;17.50;99.90;;;;;;6144884;23;20399;-80
2021/09/14 05:50:32;;;;;;;17.53;13.83;;;17.50;99.90;;;;;;6147940;23;20411;-80
2021/09/14 05:53:00;;;;;;;15.20;13.90;;;17.50;99.90;;;;;;6147128;23;20897;-81
2021/09/14 05:55:26;;;;;;;16.50;14.60;;;17.50;99.90;;;;;;6144463;23;20653;-80
2021/09/14 05:57:53;;;;;;;17.93;15.30;;;17.50;99.90;;;;;;6135664;23;20478;-79
2021/09/14 06:00:21;;;;;;;19.60;16.57;;;17.50;99.90;;;;;;6139447;23;20407;-80
2021/09/14 06:02:48;;;;;;;22.43;19.53;;;17.50;99.90;;;;;;6138350;23;20414;-80
2021/09/14 06:05:15;;;;;;;25.53;18.30;;;17.50;99.90;;;;;;6132157;23;20439;-81
2021/09/14 06:07:42;;;;;;;24.60;19.20;;;17.50;99.90;;;;;;6130344;23;20452;-81
2021/09/14 06:10:11;;;;;;;25.13;18.33;;;17.60;99.90;;;;;;6131091;23;20410;-80
2021/09/14 06:12:38;;;;;;;23.47;18.03;;;17.70;99.90;;;;;;6132692;23;20406;-84
2021/09/14 06:15:06;;;;;;;28.97;20.53;;;17.70;99.90;;;;;;6145157;23;20446;-79
2021/09/14 06:17:33;;;;;;;35.50;22.83;;;17.80;99.90;;;;;;6134026;23;20776;-78
2021/09/14 06:20:04;;;;;;;30.23;22.77;;;17.80;99.90;;;;;;6129346;23;20408;-79
2021/09/14 06:22:31;;;;;;;31.60;18.50;;;17.80;99.90;;;;;;6134215;23;20989;-80
2021/09/14 06:24:58;;;;;;;20.13;17.50;;;17.90;99.90;;;;;;6136756;23;20430;-80
2021/09/14 06:27:26;;;;;;;26.50;18.30;;;17.80;99.90;;;;;;6132000;23;20423;-85
2021/09/14 06:29:53;;;;;;;17.83;16.13;;;17.90;99.90;;;;;;6129455;23;20509;-85
2021/09/14 06:32:20;;;;;;;17.10;15.30;;;18.00;99.90;;;;;;6133677;23;20423;-86
2021/09/14 06:34:46;;;;;;;15.27;13.60;;;18.10;99.90;;;;;;6135514;23;20452;-86
2021/09/14 06:37:13;;;;;;;15.43;13.10;;;18.30;99.90;;;;;;6148470;23;20435;-86
2021/09/14 06:39:40;;;;;;;14.20;12.87;;;18.30;99.90;;;;;;6132433;23;20409;-87
2021/09/14 06:42:07;;;;;;;15.60;13.93;;;18.50;99.90;;;;;;6141024;23;20428;-85
2021/09/14 06:44:35;;;;;;;16.47;14.60;;;18.60;99.90;;;;;;6150727;23;20434;-86
2021/09/14 06:47:02;;;;;;;14.13;12.67;;;18.70;99.90;;;;;;6138585;23;20452;-85
2021/09/14 06:49:29;;;;;;;17.33;15.53;;;18.80;99.90;;;;;;6151307;23;20404;-85
2021/09/14 06:51:56;;;;;;;15.23;13.70;;;18.90;99.90;;;;;;6151729;23;20920;-86
2021/09/14 06:54:23;;;;;;;20.20;15.60;;;19.00;99.90;;;;;;6148072;23;20406;-85
2021/09/14 06:56:50;;;;;;;15.43;13.63;;;19.10;99.90;;;;;;6149694;23;20501;-87
2021/09/14 06:59:16;;;;;;;20.67;14.63;;;19.10;99.90;;;;;;6134839;23;20512;-87
2021/09/14 07:01:46;;;;;;;14.90;13.30;;;19.20;99.90;;;;;;6130254;23;20469;-86
2021/09/14 07:04:14;;;;;;;19.10;13.70;;;19.30;99.90;;;;;;6129002;23;20413;-86
2021/09/14 07:06:41;;;;;;;13.23;12.00;;;19.40;99.90;;;;;;6129194;23;20449;-86
2021/09/14 07:09:08;;;;;;;14.30;12.93;;;19.40;99.90;;;;;;6128726;23;20482;-87
2021/09/14 07:11:35;;;;;;;14.10;12.60;;;19.50;99.90;;;;;;6127847;23;20403;-85
2021/09/14 07:14:02;;;;;;;14.23;12.73;;;19.70;99.90;;;;;;6134082;23;20417;-84
2021/09/14 07:16:28;;;;;;;16.97;15.17;;;19.90;99.90;;;;;;6152438;23;20430;-84
2021/09/14 07:18:56;;;;;;;14.50;13.10;;;20.00;99.90;;;;;;6129849;23;20881;-85
2021/09/14 07:21:23;;;;;;;15.53;14.17;;;20.10;99.90;;;;;;6128778;23;20415;-86
2021/09/14 07:23:50;;;;;;;12.80;11.30;;;20.30;99.90;;;;;;6134404;23;20415;-85
2021/09/14 07:26:16;;;;;;;13.23;11.67;;;20.40;99.90;;;;;;6138197;23;20758;-85
2021/09/14 07:28:43;;;;;;;14.00;12.60;;;20.50;99.90;;;;;;6129527;23;20430;-87
2021/09/14 07:31:11;;;;;;;13.10;11.57;;;20.60;99.90;;;;;;6138002;23;20409;-86
2021/09/14 07:33:38;;;;;;;11.80;10.60;;;20.70;99.90;;;;;;6151331;23;20471;-86
2021/09/14 07:36:08;;;;;;;10.63;9.83;;;20.70;99.90;;;;;;6147270;23;20481;-86
2021/09/14 07:38:36;;;;;;;13.20;11.53;;;20.80;99.90;;;;;;6144399;23;20479;-85
2021/09/14 07:41:03;;;;;;;12.67;11.27;;;20.90;99.90;;;;;;6151032;23;20412;-86
2021/09/14 07:43:29;;;;;;;11.70;10.50;;;21.20;99.90;;;;;;6142430;23;20511;-86
2021/09/14 07:45:56;;;;;;;13.10;10.87;;;21.40;99.90;;;;;;6148570;23;20430;-87
2021/09/14 07:48:23;;;;;;;11.27;10.07;;;21.50;99.90;;;;;;6134597;23;20520;-86
2021/09/14 07:50:50;;;;;;;12.13;10.73;;;21.60;99.90;;;;;;6147404;23;20397;-87
2021/09/14 07:53:18;;;;;;;11.87;10.77;;;21.90;99.90;;;;;;6130944;23;20417;-86
2021/09/14 07:55:45;;;;;;;11.10;10.07;;;22.10;99.90;;;;;;6129684;23;20431;-87
2021/09/14 07:58:11;;;;;;;12.00;10.70;;;22.20;99.90;;;;;;6130607;23;20431;-86
2021/09/14 08:00:38;;;;;;;13.40;12.10;;;22.20;99.90;;;;;;6145436;23;20424;-88
2021/09/14 08:03:05;;;;;;;13.43;10.77;;;22.40;99.90;;;;;;6129487;23;20784;-88
2021/09/14 08:05:32;;;;;;;12.77;11.50;;;22.40;99.90;;;;;;6127676;23;20747;-87
2021/09/14 08:07:58;;;;;;;11.37;10.30;;;22.40;99.90;;;;;;6126957;23;20510;-88
2021/09/14 08:10:26;;;;;;;10.77;9.60;;;22.30;99.90;;;;;;6126870;23;20415;-88
2021/09/14 08:12:53;;;;;;;14.13;9.50;;;22.20;99.90;;;;;;6133578;23;20468;-88
2021/09/14 08:15:20;;;;;;;10.53;9.47;;;22.20;99.90;;;;;;6138682;23;20421;-86
2021/09/14 08:17:46;;;;;;;10.87;9.63;;;22.20;99.90;;;;;;6134281;23;20409;-86
2021/09/14 08:20:15;;;;;;;10.13;9.13;;;22.30;99.90;;;;;;6128848;23;20394;-87
2021/09/14 08:22:41;;;;;;;10.17;9.07;;;22.40;99.90;;;;;;6128076;23;20435;-87
2021/09/14 08:25:09;;;;;;;9.50;8.70;;;22.60;99.90;;;;;;6126778;23;20457;-86
2021/09/14 08:27:41;;;;;;;13.57;10.80;;;22.90;99.90;;;;;;6126322;23;20438;-87
2021/09/14 08:30:09;;;;;;;10.60;9.53;;;23.00;99.90;;;;;;6137527;23;20393;-86
2021/09/14 08:32:35;;;;;;;9.70;8.20;;;23.00;99.90;;;;;;6143104;23;20760;-87
2021/09/14 08:35:02;;;;;;;9.00;8.30;;;23.20;99.90;;;;;;6129065;23;20435;-86
2021/09/14 08:37:29;;;;;;;8.43;7.53;;;23.60;99.90;;;;;;6127928;23;20403;-87
2021/09/14 08:39:56;;;;;;;10.97;7.80;;;24.20;99.90;;;;;;6126362;23;20933;-87
2021/09/14 08:42:22;;;;;;;9.40;7.87;;;24.70;99.90;;;;;;6127372;23;20407;-87
2021/09/14 08:44:51;;;;;;;11.57;8.30;;;25.40;98.70;;;;;;6127925;23;20834;-87
2021/09/14 08:47:21;;;;;;;10.13;7.63;;;25.80;97.30;;;;;;6127829;23;20514;-87
2021/09/14 08:49:48;;;;;;;8.37;7.47;;;27.40;95.30;;;;;;6127791;23;20467;-87
2021/09/14 08:52:15;;;;;;;7.80;7.00;;;28.30;91.90;;;;;;6128107;23;20411;-88
2021/09/14 08:54:42;;;;;;;7.70;7.00;;;28.40;90.90;;;;;;6129649;23;20456;-88
2021/09/14 08:57:09;;;;;;;9.50;7.23;;;27.90;91.30;;;;;;6131001;23;20410;-86
2021/09/14 08:59:36;;;;;;;10.33;8.10;;;27.60;90.90;;;;;;6137653;23;20714;-87
2021/09/14 09:02:06;;;;;;;8.63;7.60;;;27.70;90.70;;;;;;6126713;23;20408;-88
2021/09/14 09:04:34;;;;;;;8.30;7.60;;;28.90;89.50;;;;;;6126476;23;20435;-87
2021/09/14 09:07:01;;;;;;;12.17;7.40;;;31.00;82.50;;;;;;6126045;23;20556;-88
2021/09/14 09:09:29;;;;;;;7.17;6.63;;;32.80;75.40;;;;;;6137136;23;20670;-85
2021/09/14 09:11:59;;;;;;;8.47;7.47;;;32.90;71.10;;;;;;6153163;23;20392;-86
2021/09/14 09:14:34;;;;;;;8.37;7.67;;;33.90;66.10;;;;;;6149813;23;20439;-88
2021/09/14 09:17:06;;;;;;;13.97;8.20;;;34.40;63.30;;;;;;6153139;23;20400;-86
2021/09/14 09:19:33;;;;;;;10.30;7.00;;;36.10;60.80;;;;;;6140022;23;20400;-86
2021/09/14 09:22:00;;;;;;;7.57;6.93;;;36.40;57.50;;;;;;6149341;23;20403;-86
2021/09/14 09:24:27;;;;;;;7.20;6.57;;;36.10;56.70;;;;;;6134818;23;20437;-87
2021/09/14 09:26:54;;;;;;;7.17;6.57;;;36.90;55.20;;;;;;6152850;23;20419;-86
2021/09/14 09:29:23;;;;;;;7.63;7.03;;;36.20;55.50;;;;;;6143262;23;20408;-88
2021/09/14 09:31:51;;;;;;;6.87;6.27;;;35.70;55.50;;;;;;6140110;23;20400;-88
2021/09/14 09:34:26;;;;;;;6.83;6.33;;;36.60;54.60;;;;;;6137897;23;20473;-87
2021/09/14 09:37:03;;;;;;;8.10;7.30;;;36.20;54.50;;;;;;6138039;23;20451;-88
2021/09/14 09:39:37;;;;;;;7.17;6.47;;;36.10;54.00;;;;;;6132142;23;20981;-88
2021/09/14 09:42:06;;;;;;;7.40;6.70;;;36.20;54.90;;;;;;6129932;23;20380;-90
2021/09/14 09:44:33;;;;;;;7.23;6.63;;;37.30;52.50;;;;;;6134620;23;20436;-89
2021/09/14 09:47:01;;;;;;;11.63;6.70;;;36.80;52.20;;;;;;6149078;23;20399;-89
2021/09/14 09:49:30;;;;;;;8.73;6.60;;;36.30;53.90;;;;;;6145869;23;20909;-88
2021/09/14 09:51:58;;;;;;;6.93;6.33;;;37.90;52.30;;;;;;6137566;23;20404;-88
2021/09/14 09:54:25;;;;;;;7.30;6.70;;;38.40;51.10;;;;;;6132635;23;20463;-88
2021/09/14 09:57:01;;;;;;;7.33;6.70;;;39.00;49.30;;;;;;6137202;23;20406;-92
2021/09/14 09:59:28;;;;;;;7.40;6.60;;;38.90;49.10;;;;;;6142173;23;20403;-86
2021/09/14 10:02:12;;;;;;;6.90;6.30;;;38.90;49.00;;;;;;6137394;23;20388;-88
2021/09/14 10:04:45;;;;;;;7.37;6.77;;;39.40;48.10;;;;;;6144790;23;20483;-86
2021/09/14 10:07:13;;;;;;;6.07;5.67;;;39.40;47.10;;;;;;6144712;23;20388;-87
2021/09/14 10:09:53;;;;;;;6.13;5.63;;;39.40;47.00;;;;;;6140764;23;20403;-88
2021/09/14 10:12:28;;;;;;;7.67;6.30;;;38.80;47.80;;;;;;6139781;23;20422;-88
2021/09/14 10:14:59;;;;;;;6.13;5.73;;;39.10;46.80;;;;;;6136143;23;20912;-90
2021/09/14 10:17:27;;;;;;;9.13;5.87;;;37.00;49.90;;;;;;6137562;23;20418;-89
2021/09/14 10:19:55;;;;;;;5.97;5.50;;;36.50;51.20;;;;;;6142173;23;20406;-89
2021/09/14 10:22:28;;;;;;;6.40;5.80;;;37.20;50.80;;;;;;6134760;23;20451;-86
2021/09/14 10:24:58;;;;;;;6.50;6.00;;;36.80;50.40;;;;;;6138370;23;20428;-85
2021/09/14 10:27:35;;;;;;;6.53;5.90;;;37.50;50.10;;;;;;6136759;23;20944;-86
2021/09/14 10:30:04;;;;;;;7.63;6.37;;;37.00;50.50;;;;;;6129822;23;20965;-91
2021/09/14 10:32:38;;;;;;;6.40;6.00;;;37.60;50.00;;;;;;6130583;23;20412;-90
2021/09/14 10:35:08;;;;;;;7.10;6.43;;;38.80;48.20;;;;;;6135088;23;20458;-91
2021/09/14 10:37:36;;;;;;;6.90;6.30;;;39.70;47.00;;;;;;6136774;23;20392;-90
2021/09/14 10:40:09;;;;;;;6.90;6.40;;;39.70;46.30;;;;;;6135066;23;20512;-91
2021/09/14 10:42:39;;;;;;;6.73;6.20;;;40.80;44.70;;;;;;6138492;23;20973;-91
2021/09/14 10:45:11;;;;;;;6.67;6.20;;;41.10;43.30;;;;;;6131378;23;20909;-91
2021/09/14 10:47:39;;;;;;;6.73;6.13;;;41.60;43.50;;;;;;6130450;23;20494;-91
2021/09/14 10:50:09;;;;;;;6.90;6.00;;;41.70;42.30;;;;;;6132925;23;20436;-91
2021/09/14 10:52:38;;;;;;;6.53;6.00;;;42.30;41.50;;;;;;6130999;23;20398;-88
2021/09/14 10:55:08;;;;;;;7.90;7.23;;;42.40;41.20;;;;;;6135558;23;20396;-89
2021/09/14 10:57:37;;;;;;;7.00;6.40;;;42.70;40.80;;;;;;6135036;23;20410;-88
2021/09/14 11:00:06;;;;;;;6.77;6.27;;;43.00;40.10;;;;;;6130880;23;20435;-90
2021/09/14 11:02:33;;;;;;;6.20;5.60;;;41.60;41.20;;;;;;6131218;23;20408;-88
2021/09/14 11:05:00;;;;;;;6.33;5.77;;;40.80;42.40;;;;;;6131397;23;20443;-89
2021/09/14 11:07:29;;;;;;;7.43;6.10;;;40.10;43.30;;;;;;6132262;23;20403;-88
2021/09/14 11:09:57;;;;;;;7.10;6.57;;;40.20;43.20;;;;;;6139421;23;20419;-88
2021/09/14 11:12:38;;;;;;;5.73;5.33;;;40.40;43.20;;;;;;6154331;23;20463;-90
2021/09/14 11:15:06;;;;;;;7.40;7.00;;;40.50;42.30;;;;;;6152346;23;20400;-88
2021/09/14 11:17:34;;;;;;;5.83;5.43;;;40.50;42.00;;;;;;6129980;23;20400;-90
2021/09/14 11:20:12;;;;;;;9.00;6.17;;;38.60;43.90;;;;;;6129446;23;20412;-88
2021/09/14 11:22:44;;;;;;;6.90;6.40;;;38.40;45.60;;;;;;6137660;23;20937;-89
2021/09/14 11:25:19;;;;;;;7.23;6.60;;;40.00;43.90;;;;;;6137501;23;20977;-89
2021/09/14 11:27:54;;;;;;;6.80;6.20;;;40.70;42.40;;;;;;6130414;23;20439;-89
2021/09/14 11:30:22;;;;;;;6.60;6.00;;;42.40;40.10;;;;;;6128785;23;20525;-89
2021/09/14 11:32:50;;;;;;;6.23;5.63;;;41.30;40.70;;;;;;6129719;23;20423;-88
2021/09/14 11:35:18;;;;;;;7.30;6.80;;;40.80;41.40;;;;;;6129379;23;20498;-88
2021/09/14 11:37:57;;;;;;;7.10;6.60;;;39.50;42.20;;;;;;6129460;23;20416;-89
2021/09/14 11:40:24;;;;;;;7.83;7.17;;;38.80;44.10;;;;;;6128708;23;20518;-89
2021/09/14 11:42:54;;;;;;;7.80;7.10;;;37.80;44.90;;;;;;6129432;23;20423;-88
2021/09/14 11:45:24;;;;;;;6.80;6.30;;;36.60;47.30;;;;;;6130320;23;20437;-88
2021/09/14 11:47:52;;;;;;;7.23;6.73;;;35.30;49.20;;;;;;6133035;23;20455;-89
2021/09/14 11:50:25;;;;;;;7.40;6.80;;;34.90;50.60;;;;;;6132578;23;20455;-88
2021/09/14 11:53:04;;;;;;;8.20;7.50;;;34.50;51.60;;;;;;6138431;23;20411;-89
2021/09/14 11:55:31;;;;;;;6.57;5.97;;;34.10;52.40;;;;;;6153623;23;20473;-90
2021/09/14 11:58:02;;;;;;;6.60;6.00;;;34.10;52.70;;;;;;6142347;23;20420;-89
2021/09/14 12:00:37;;;;;;;7.60;7.00;;;33.90;53.30;;;;;;6130207;23;20482;-89
2021/09/14 12:03:05;;;;;;;7.57;6.90;;;33.60;54.50;;;;;;6129038;23;20408;-88
2021/09/14 12:05:32;;;;;;;7.53;6.93;;;33.00;55.30;;;;;;6129607;23;20392;-88
2021/09/14 12:08:00;;;;;;;7.40;6.70;;;32.80;56.30;;;;;;6135403;23;20447;-90
2021/09/14 12:10:29;;;;;;;8.00;7.30;;;32.50;56.80;;;;;;6131139;23;20414;-88
2021/09/14 12:12:57;;;;;;;8.83;7.73;;;32.40;57.60;;;;;;6138733;23;20419;-88
2021/09/14 12:15:30;;;;;;;9.00;8.13;;;32.00;58.30;;;;;;6147776;23;20419;-89
2021/09/14 12:18:04;;;;;;;9.83;7.60;;;31.80;59.00;;;;;;6133282;23;20412;-88
2021/09/14 12:20:33;;;;;;;8.80;8.00;;;31.60;59.50;;;;;;6135674;23;20466;-88
2021/09/14 12:23:00;;;;;;;7.63;6.93;;;31.40;59.90;;;;;;6133845;23;20828;-88
2021/09/14 12:25:30;;;;;;;8.37;7.77;;;31.20;61.10;;;;;;6131426;23;20412;-88
2021/09/14 12:27:58;;;;;;;8.00;7.40;;;31.10;61.60;;;;;;6128847;23;20887;-88
2021/09/14 12:30:25;;;;;;;9.03;8.43;;;31.00;61.90;;;;;;6130504;23;20423;-89
2021/09/14 12:32:53;;;;;;;9.50;7.27;;;30.90;62.10;;;;;;6128686;23;20478;-89
2021/09/14 12:37:55;;;;;;;8.50;7.13;;;31.70;60.50;;;;;;6152425;23;20458;-93
2021/09/14 12:40:22;;;;;;;7.20;6.60;;;32.30;59.50;;;;;;6146339;23;20438;-89
2021/09/14 12:43:17;;;;;;;9.80;6.93;;;32.90;57.90;;;;;;6144802;23;20380;-92
2021/09/14 13:05:39;;;;;;;7.70;6.77;;;37.30;48.60;;;;;;6124652;23;20439;-92
2021/09/14 13:26:14;;;;;;;8.23;6.70;;;37.50;47.30;;;;;;6056942;23;20422;-92
2021/09/14 13:29:03;;;;;;;7.20;6.60;;;37.20;47.30;;;;;;6152854;23;20446;-90
2021/09/14 13:54:59;;;;;;;7.93;7.13;;;33.20;55.60;;;;;;6128629;23;20442;-92
2021/09/14 13:57:30;;;;;;;8.57;7.60;;;33.00;56.20;;;;;;6142094;23;20392;-92
2021/09/14 13:59:59;;;;;;;7.70;7.10;;;33.10;55.80;;;;;;6143083;23;20431;-89
2021/09/14 14:02:43;;;;;;;7.30;6.70;;;33.20;55.80;;;;;;6140683;23;20395;-92
2021/09/14 14:11:13;;;;;;;7.47;6.97;;;33.10;56.10;;;;;;6140645;23;20445;-92
2021/09/14 14:19:00;;;;;;;8.47;7.77;;;31.70;58.60;;;;;;6133289;23;20756;-92
2021/09/14 14:21:28;;;;;;;8.33;7.53;;;31.00;59.70;;;;;;6092685;23;20472;-89
2021/09/14 14:29:02;;;;;;;7.90;7.30;;;30.50;61.80;;;;;;6127367;23;20439;-86
2021/09/14 14:31:29;;;;;;;8.07;7.47;;;30.60;62.10;;;;;;6136603;23;20475;-86
2021/09/14 14:34:17;;;;;;;9.07;7.60;;;30.60;63.20;;;;;;6120746;23;20530;-88
2021/09/14 14:36:44;;;;;;;8.30;7.70;;;30.80;62.80;;;;;;6152292;23;20396;-86
2021/09/14 14:45:10;;;;;;;8.30;7.60;;;32.20;59.10;;;;;;6122922;23;20924;-87
2021/09/14 14:47:37;;;;;;;7.70;7.10;;;32.60;58.40;;;;;;6128674;23;20867;-86
2021/09/14 14:50:04;;;;;;;8.13;7.43;;;32.60;58.60;;;;;;6129127;23;20465;-86
2021/09/14 14:52:31;;;;;;;8.93;8.00;;;32.60;58.80;;;;;;6128464;23;20970;-85
2021/09/14 14:55:01;;;;;;;7.70;7.00;;;32.50;58.70;;;;;;6127340;23;20419;-86